Time;durP1;ratioP1;P1;durP2;ratioP2;P2;SDS_P1;SDS_P2;PMS_P1;PMS_P2;Temp;Humidity;BMP_temperature;BMP_pressure;BME280_temperature;BME280_humidity;BME280_pressure;Samples;Min_cycle;Max_cycle;Signal;HPM_P1;HPM_P2
2021/01/24 00:01:33;;;;;;;5.07;2.57;;;1.80;99.90;;;;;;4957423;28;20192;-84
2021/01/24 00:03:59;;;;;;;6.33;3.17;;;1.80;99.90;;;;;;4972417;28;20189;-85
2021/01/24 00:06:25;;;;;;;3.97;1.70;;;1.80;99.90;;;;;;4972154;28;20705;-85
2021/01/24 00:08:50;;;;;;;5.13;2.63;;;1.70;99.90;;;;;;4973512;28;20227;-84
2021/01/24 00:11:16;;;;;;;4.33;2.43;;;1.80;99.90;;;;;;4973762;28;20193;-84
2021/01/24 00:13:42;;;;;;;6.43;3.30;;;1.70;99.90;;;;;;4971323;28;20693;-84
2021/01/24 00:16:07;;;;;;;10.03;4.27;;;1.60;99.90;;;;;;4972054;28;20228;-83
2021/01/24 00:18:33;;;;;;;1.77;1.67;;;1.60;99.90;;;;;;4956147;28;20224;-84
2021/01/24 00:20:59;;;;;;;2.47;2.00;;;1.60;99.90;;;;;;4934511;28;20189;-84
2021/01/24 00:23:24;;;;;;;2.83;2.63;;;1.60;99.90;;;;;;4973362;28;20192;-84
2021/01/24 00:25:50;;;;;;;1.80;1.70;;;1.60;99.90;;;;;;4973719;28;20193;-84
2021/01/24 00:28:21;;;;;;;2.57;2.47;;;1.60;99.90;;;;;;4984852;28;20577;-84
2021/01/24 00:30:47;;;;;;;2.43;2.23;;;1.60;99.90;;;;;;4940348;28;20235;-85
2021/01/24 00:33:13;;;;;;;1.50;1.40;;;1.60;99.90;;;;;;4954767;28;20311;-84
2021/01/24 00:35:39;;;;;;;9.77;2.47;;;1.60;99.90;;;;;;4971410;28;20369;-85
2021/01/24 00:38:04;;;;;;;2.17;1.83;;;1.60;99.90;;;;;;4971132;28;20228;-84
2021/01/24 00:40:30;;;;;;;1.43;1.33;;;1.60;99.90;;;;;;4967316;28;20758;-85
2021/01/24 00:42:56;;;;;;;0.80;0.80;;;1.60;99.90;;;;;;4953102;28;20724;-84
2021/01/24 00:45:22;;;;;;;2.30;1.93;;;1.60;99.90;;;;;;4954517;28;20312;-84
2021/01/24 00:47:47;;;;;;;1.07;1.07;;;1.60;99.90;;;;;;4972976;28;20316;-84
2021/01/24 00:50:13;;;;;;;1.47;1.37;;;1.50;99.90;;;;;;4972070;28;20618;-85
2021/01/24 00:52:40;;;;;;;1.13;1.13;;;1.50;99.90;;;;;;4956036;28;20220;-84
2021/01/24 00:55:06;;;;;;;1.27;1.20;;;1.50;99.90;;;;;;4929298;28;20275;-84
2021/01/24 00:57:44;;;;;;;1.10;1.10;;;1.60;99.90;;;;;;4935594;29;20264;-84
2021/01/24 01:00:44;;;;;;;1.30;1.17;;;1.60;99.90;;;;;;4953901;29;20194;-84
2021/01/24 01:03:11;;;;;;;2.57;1.53;;;1.60;99.90;;;;;;4952920;29;20559;-85
2021/01/24 01:05:38;;;;;;;1.43;0.87;;;1.60;99.90;;;;;;4955098;28;20213;-84
2021/01/24 01:08:04;;;;;;;0.37;0.37;;;1.60;99.90;;;;;;4936929;29;20182;-84
2021/01/24 01:10:30;;;;;;;1.53;1.43;;;1.60;99.90;;;;;;4966297;28;20248;-85
2021/01/24 01:12:56;;;;;;;0.60;0.60;;;1.60;99.90;;;;;;4935303;29;20217;-87
2021/01/24 01:15:23;;;;;;;0.70;0.70;;;1.60;99.90;;;;;;4939824;29;20266;-83
2021/01/24 01:17:50;;;;;;;0.93;0.80;;;1.60;99.90;;;;;;4941761;29;20184;-85
2021/01/24 01:20:16;;;;;;;1.00;0.83;;;1.60;99.90;;;;;;4955485;29;20220;-84
2021/01/24 01:22:42;;;;;;;0.57;0.57;;;1.60;99.90;;;;;;4969921;28;20308;-84
2021/01/24 01:25:09;;;;;;;0.50;0.50;;;1.60;99.90;;;;;;4939861;28;20651;-85
2021/01/24 01:27:34;;;;;;;0.80;0.80;;;1.70;99.90;;;;;;4940638;28;20229;-85
2021/01/24 01:30:00;;;;;;;0.63;0.63;;;1.70;99.90;;;;;;4940134;28;20552;-85
2021/01/24 01:32:26;;;;;;;1.27;1.17;;;1.70;99.90;;;;;;4941313;29;20284;-84
2021/01/24 01:34:52;;;;;;;1.33;1.23;;;1.80;99.90;;;;;;4940461;29;20817;-84
2021/01/24 01:37:18;;;;;;;0.67;0.67;;;1.80;99.90;;;;;;4956431;29;20581;-84
2021/01/24 01:43:29;;;;;;;1.17;0.90;;;1.70;99.90;;;;;;4957815;29;20666;-84
2021/01/24 01:45:55;;;;;;;0.30;0.30;;;1.80;99.90;;;;;;4937780;28;20229;-84
2021/01/24 01:48:21;;;;;;;0.77;0.77;;;1.80;99.90;;;;;;4955174;29;21911;-84
2021/01/24 01:50:47;;;;;;;1.13;1.13;;;1.80;99.90;;;;;;4957235;29;20200;-84
2021/01/24 01:53:13;;;;;;;0.63;0.63;;;1.80;99.90;;;;;;4957967;28;20693;-84
2021/01/24 01:55:39;;;;;;;0.50;0.50;;;1.80;99.90;;;;;;4966924;28;20231;-84
2021/01/24 01:58:05;;;;;;;0.37;0.37;;;1.80;99.90;;;;;;4980026;28;20196;-84
2021/01/24 02:00:31;;;;;;;1.13;1.07;;;1.80;99.90;;;;;;4996484;28;20223;-84
2021/01/24 02:03:22;;;;;;;0.20;0.20;;;1.80;99.90;;;;;;4995435;28;20191;-83
2021/01/24 02:05:53;;;;;;;0.30;0.30;;;1.80;99.90;;;;;;4991632;28;20191;-85
2021/01/24 02:08:52;;;;;;;0.20;0.20;;;1.80;99.90;;;;;;4979611;28;20192;-85
2021/01/24 02:11:22;;;;;;;0.63;0.30;;;1.80;99.90;;;;;;4975469;28;20311;-84
2021/01/24 02:14:15;;;;;;;0.20;0.20;;;1.70;99.90;;;;;;4976684;28;20224;-84
2021/01/24 02:16:44;;;;;;;1.80;1.27;;;1.80;99.90;;;;;;4989171;28;20216;-84
2021/01/24 02:19:23;;;;;;;0.20;0.20;;;1.90;99.90;;;;;;4992176;28;20231;-83
2021/01/24 02:21:50;;;;;;;0.20;0.20;;;1.90;99.90;;;;;;4990773;28;20631;-84
2021/01/24 02:24:16;;;;;;;0.27;0.27;;;1.90;99.90;;;;;;4959610;28;20677;-84
2021/01/24 02:26:54;;;;;;;0.10;0.10;;;1.90;99.90;;;;;;4977516;28;20263;-84
2021/01/24 02:29:57;;;;;;;0.10;0.10;;;1.90;99.90;;;;;;4987418;28;20681;-85
2021/01/24 02:32:25;;;;;;;0.57;0.57;;;1.90;99.90;;;;;;4990548;28;20220;-85
2021/01/24 02:34:53;;;;;;;0.20;0.20;;;1.90;99.90;;;;;;4990923;28;20230;-86
2021/01/24 02:37:19;;;;;;;0.30;0.30;;;1.90;99.90;;;;;;4955052;28;20224;-84
2021/01/24 02:39:46;;;;;;;0.20;0.20;;;1.90;99.90;;;;;;4953343;28;20301;-85
2021/01/24 02:42:13;;;;;;;0.40;0.40;;;1.90;99.90;;;;;;4955390;28;20215;-84
2021/01/24 02:44:40;;;;;;;0.10;0.10;;;1.80;99.90;;;;;;4977968;28;20202;-85
2021/01/24 02:47:06;;;;;;;0.30;0.30;;;2.00;99.90;;;;;;4960735;28;20231;-84
2021/01/24 02:49:35;;;;;;;0.40;0.40;;;2.00;99.90;;;;;;4954267;28;20220;-84
2021/01/24 02:52:03;;;;;;;0.20;0.20;;;2.00;99.90;;;;;;4977133;28;20673;-83
2021/01/24 02:54:30;;;;;;;0.20;0.20;;;2.00;99.90;;;;;;4960959;28;20228;-84
2021/01/24 02:57:45;;;;;;;0.20;0.20;;;2.00;99.90;;;;;;4979346;28;20707;-84
2021/01/24 03:00:11;;;;;;;0.20;0.20;;;1.90;99.90;;;;;;4987378;28;20184;-84
2021/01/24 03:02:37;;;;;;;0.20;0.20;;;2.00;99.90;;;;;;4943469;28;20210;-85
2021/01/24 03:05:04;;;;;;;0.67;0.60;;;2.10;99.90;;;;;;4959682;28;20662;-85
2021/01/24 03:07:30;;;;;;;0.33;0.30;;;2.10;99.90;;;;;;4987966;28;20234;-84
2021/01/24 03:09:56;;;;;;;0.30;0.30;;;2.20;99.90;;;;;;4959407;28;20231;-84
2021/01/24 03:12:25;;;;;;;0.50;0.50;;;2.20;99.90;;;;;;4991707;28;20223;-85
2021/01/24 03:14:51;;;;;;;0.33;0.33;;;2.10;99.90;;;;;;4977486;28;20196;-86
2021/01/24 03:17:18;;;;;;;0.20;0.20;;;2.10;99.90;;;;;;4972479;28;20251;-84
2021/01/24 03:19:46;;;;;;;0.40;0.40;;;2.10;99.90;;;;;;4973698;28;20696;-84
2021/01/24 03:22:13;;;;;;;0.30;0.30;;;2.00;99.90;;;;;;4991459;28;20227;-87
2021/01/24 03:24:41;;;;;;;0.30;0.30;;;2.00;99.90;;;;;;4975444;28;20219;-83
2021/01/24 03:27:08;;;;;;;0.57;0.40;;;2.00;99.90;;;;;;4987755;28;20216;-84
2021/01/24 03:29:34;;;;;;;0.30;0.30;;;2.00;99.90;;;;;;4994267;28;20196;-84
2021/01/24 03:32:00;;;;;;;0.33;0.33;;;2.00;99.90;;;;;;4975330;28;20234;-85
2021/01/24 03:34:25;;;;;;;0.20;0.20;;;2.00;99.90;;;;;;4976007;28;20648;-84
2021/01/24 03:36:53;;;;;;;0.57;0.40;;;2.00;99.90;;;;;;4963262;28;20700;-84
2021/01/24 03:39:19;;;;;;;0.30;0.30;;;2.00;99.90;;;;;;4974686;28;20263;-84
2021/01/24 03:41:46;;;;;;;0.20;0.20;;;2.10;99.90;;;;;;4976115;28;20191;-83
2021/01/24 03:44:12;;;;;;;0.67;0.67;;;2.10;99.90;;;;;;4975444;28;20220;-84
2021/01/24 03:46:38;;;;;;;0.10;0.10;;;2.10;99.90;;;;;;4992287;28;20215;-84
2021/01/24 03:49:05;;;;;;;0.10;0.10;;;2.20;99.90;;;;;;4974719;28;20220;-84
2021/01/24 03:51:31;;;;;;;0.30;0.30;;;2.10;99.90;;;;;;4970250;28;20226;-84
2021/01/24 03:53:57;;;;;;;0.10;0.10;;;2.10;99.90;;;;;;4973160;28;20240;-84
2021/01/24 03:56:23;;;;;;;0.20;0.20;;;2.10;99.90;;;;;;4977023;28;20195;-84
2021/01/24 03:58:48;;;;;;;0.10;0.10;;;2.10;99.90;;;;;;4975614;28;20222;-86
2021/01/24 04:01:15;;;;;;;0.20;0.20;;;2.10;99.90;;;;;;4977812;28;20661;-83
2021/01/24 04:03:41;;;;;;;0.20;0.20;;;2.00;99.90;;;;;;4992824;28;20227;-84
2021/01/24 04:06:07;;;;;;;0.30;0.30;;;2.00;99.90;;;;;;4959946;28;20207;-85
2021/01/24 04:08:32;;;;;;;0.30;0.30;;;2.00;99.90;;;;;;4976952;28;20188;-84
2021/01/24 04:10:58;;;;;;;0.63;0.63;;;2.00;99.90;;;;;;4975510;28;20228;-84
2021/01/24 04:13:24;;;;;;;0.20;0.20;;;1.90;99.90;;;;;;4977009;28;20196;-84
2021/01/24 04:15:51;;;;;;;0.37;0.37;;;1.90;99.90;;;;;;4976585;28;20671;-84
2021/01/24 04:18:16;;;;;;;0.30;0.30;;;1.90;99.90;;;;;;4993199;28;20196;-85
2021/01/24 04:20:42;;;;;;;3.20;0.40;;;2.00;99.90;;;;;;4976111;28;20283;-87
2021/01/24 04:23:08;;;;;;;0.20;0.20;;;2.10;99.90;;;;;;4971804;28;20754;-89
2021/01/24 04:25:34;;;;;;;0.10;0.10;;;2.30;99.90;;;;;;4955843;28;20274;-86
2021/01/24 04:28:00;;;;;;;0.20;0.20;;;2.40;99.90;;;;;;4971399;28;20281;-86
2021/01/24 04:30:26;;;;;;;0.10;0.10;;;2.40;99.90;;;;;;4970388;28;20236;-85
2021/01/24 04:32:52;;;;;;;0.20;0.20;;;2.40;99.90;;;;;;4950121;28;20192;-83
2021/01/24 04:35:18;;;;;;;0.27;0.23;;;2.40;99.90;;;;;;4986720;28;20224;-86
2021/01/24 04:37:44;;;;;;;0.10;0.10;;;2.40;99.90;;;;;;4972562;28;20224;-84
2021/01/24 04:40:10;;;;;;;0.10;0.10;;;2.50;99.90;;;;;;4970423;28;20307;-84
2021/01/24 04:42:37;;;;;;;0.10;0.10;;;2.50;99.90;;;;;;4954431;28;20238;-85
2021/01/24 04:45:05;;;;;;;0.17;0.17;;;2.50;99.90;;;;;;4971053;28;20168;-86
2021/01/24 04:47:31;;;;;;;0.20;0.20;;;2.60;99.90;;;;;;4987056;28;20204;-84
2021/01/24 04:49:57;;;;;;;0.10;0.10;;;2.60;99.90;;;;;;4970614;28;20274;-84
2021/01/24 04:52:24;;;;;;;0.13;0.13;;;2.50;99.90;;;;;;4971095;28;20220;-86
2021/01/24 04:54:51;;;;;;;0.93;0.93;;;2.50;99.90;;;;;;4988365;28;20238;-84
2021/01/24 04:57:19;;;;;;;0.37;0.37;;;2.50;99.90;;;;;;4970670;28;20282;-85
2021/01/24 04:59:45;;;;;;;0.20;0.20;;;2.50;99.90;;;;;;4971216;28;20211;-84
2021/01/24 05:02:14;;;;;;;0.20;0.20;;;2.60;99.90;;;;;;4971186;28;20266;-84
2021/01/24 05:04:40;;;;;;;0.10;0.10;;;2.60;99.90;;;;;;4990355;28;20224;-84
2021/01/24 05:07:05;;;;;;;0.10;0.10;;;2.70;99.90;;;;;;4958742;28;20321;-85
2021/01/24 05:09:32;;;;;;;0.10;0.10;;;2.70;99.90;;;;;;4957029;28;20220;-84
2021/01/24 05:11:58;;;;;;;0.20;0.20;;;2.80;99.90;;;;;;4988337;28;20211;-84
2021/01/24 05:14:24;;;;;;;0.30;0.30;;;2.80;99.90;;;;;;4953557;28;20191;-84
2021/01/24 05:16:54;;;;;;;0.30;0.30;;;2.90;99.90;;;;;;4968677;28;20202;-87
2021/01/24 05:19:21;;;;;;;0.30;0.30;;;2.90;99.90;;;;;;4983633;28;20211;-89
2021/01/24 05:21:48;;;;;;;0.20;0.20;;;2.90;99.90;;;;;;4948663;28;20223;-84
2021/01/24 05:24:16;;;;;;;0.10;0.10;;;2.90;99.90;;;;;;4983641;28;20220;-86
2021/01/24 05:26:46;;;;;;;0.67;0.67;;;2.80;99.90;;;;;;4970686;28;20274;-87
2021/01/24 05:29:24;;;;;;;0.10;0.10;;;2.80;99.90;;;;;;4969310;28;20228;-87
2021/01/24 05:31:51;;;;;;;0.10;0.10;;;2.80;99.90;;;;;;4986224;28;20231;-85
2021/01/24 05:34:21;;;;;;;0.20;0.20;;;2.70;99.90;;;;;;4969794;28;20216;-87
2021/01/24 05:36:47;;;;;;;0.20;0.20;;;2.70;99.90;;;;;;4971028;28;20234;-84
2021/01/24 05:39:14;;;;;;;0.10;0.10;;;2.70;99.90;;;;;;4985872;28;20188;-85
2021/01/24 05:41:40;;;;;;;0.20;0.20;;;2.60;99.90;;;;;;4986420;28;20638;-85
2021/01/24 05:44:13;;;;;;;0.10;0.10;;;2.60;99.90;;;;;;4969585;28;20279;-85
2021/01/24 05:46:40;;;;;;;0.20;0.20;;;2.60;99.90;;;;;;4987725;28;20299;-85
2021/01/24 05:49:10;;;;;;;0.20;0.20;;;2.50;99.90;;;;;;4987937;28;20212;-84
2021/01/24 05:51:36;;;;;;;0.30;0.23;;;2.50;99.90;;;;;;4967888;28;20227;-89
2021/01/24 05:54:02;;;;;;;0.30;0.30;;;2.50;99.90;;;;;;4969682;28;20235;-84
2021/01/24 05:56:29;;;;;;;0.20;0.20;;;2.50;99.90;;;;;;4992306;28;20200;-84
2021/01/24 05:58:56;;;;;;;0.20;0.20;;;2.50;99.90;;;;;;4973462;28;20219;-84
2021/01/24 06:01:26;;;;;;;0.20;0.20;;;2.50;99.90;;;;;;4991955;28;20216;-85
2021/01/24 06:03:58;;;;;;;0.33;0.30;;;2.60;99.90;;;;;;4958709;28;20692;-84
2021/01/24 06:06:24;;;;;;;0.20;0.20;;;2.70;99.90;;;;;;4972895;28;20228;-84
2021/01/24 06:08:50;;;;;;;0.10;0.10;;;2.70;99.90;;;;;;4959966;28;21110;-84
2021/01/24 06:11:17;;;;;;;0.40;0.40;;;2.80;99.90;;;;;;4974910;28;20562;-84
2021/01/24 06:13:46;;;;;;;0.70;0.70;;;2.80;99.90;;;;;;4975375;28;20224;-84
2021/01/24 06:16:18;;;;;;;0.47;0.33;;;2.80;99.90;;;;;;4976245;28;20243;-85
2021/01/24 06:19:01;;;;;;;0.30;0.30;;;2.80;99.90;;;;;;4992240;28;20211;-85
2021/01/24 06:21:35;;;;;;;0.30;0.30;;;2.80;99.90;;;;;;4974275;28;20220;-84
2021/01/24 06:24:10;;;;;;;0.70;0.70;;;2.80;99.90;;;;;;4974151;28;20180;-85
2021/01/24 06:26:41;;;;;;;0.30;0.30;;;2.90;99.90;;;;;;4975882;28;20254;-87
2021/01/24 06:29:08;;;;;;;0.30;0.30;;;2.80;99.90;;;;;;4975223;28;20227;-86
2021/01/24 06:31:44;;;;;;;0.20;0.20;;;2.80;99.90;;;;;;4990776;28;20295;-84
2021/01/24 06:34:09;;;;;;;0.20;0.20;;;2.80;99.90;;;;;;4990609;28;20215;-87
2021/01/24 06:37:01;;;;;;;0.80;0.80;;;2.80;99.90;;;;;;4959540;28;20227;-86
2021/01/24 06:39:43;;;;;;;0.10;0.10;;;2.80;99.90;;;;;;4974679;28;20231;-84
2021/01/24 06:42:09;;;;;;;0.30;0.30;;;2.90;99.90;;;;;;4973858;28;20191;-85
2021/01/24 06:44:40;;;;;;;0.20;0.20;;;2.90;99.90;;;;;;4993145;28;20180;-85
2021/01/24 06:47:27;;;;;;;0.43;0.43;;;3.00;99.90;;;;;;4972253;28;20235;-85
2021/01/24 06:49:53;;;;;;;0.17;0.17;;;3.10;99.90;;;;;;4975332;28;20598;-85
2021/01/24 06:52:21;;;;;;;0.23;0.23;;;3.10;99.90;;;;;;4974831;28;20224;-85
2021/01/24 06:54:49;;;;;;;0.20;0.20;;;3.00;99.90;;;;;;4991695;28;20228;-85
2021/01/24 06:57:15;;;;;;;0.10;0.10;;;3.00;99.90;;;;;;4991654;28;20357;-84
2021/01/24 06:59:41;;;;;;;0.20;0.20;;;2.90;99.90;;;;;;4976811;28;20223;-86
2021/01/24 07:02:24;;;;;;;0.30;0.30;;;2.80;99.90;;;;;;4955387;28;20724;-85
2021/01/24 07:05:07;;;;;;;1.07;0.83;;;2.80;99.90;;;;;;4975590;28;20329;-85
2021/01/24 07:07:34;;;;;;;0.20;0.20;;;2.60;99.90;;;;;;4993481;28;20227;-84
2021/01/24 07:10:00;;;;;;;2.77;0.37;;;2.60;99.90;;;;;;4972117;28;20215;-83
2021/01/24 07:12:39;;;;;;;0.10;0.10;;;2.50;99.90;;;;;;4981785;28;20266;-85
2021/01/24 07:15:09;;;;;;;0.20;0.20;;;2.50;99.90;;;;;;4974757;28;20246;-85
2021/01/24 07:17:36;;;;;;;0.20;0.20;;;2.40;99.90;;;;;;4994671;28;20238;-84
2021/01/24 07:20:04;;;;;;;0.20;0.20;;;2.40;99.90;;;;;;4976754;28;20289;-84
2021/01/24 07:22:31;;;;;;;0.30;0.30;;;2.30;99.90;;;;;;4969958;28;20306;-85
2021/01/24 07:24:57;;;;;;;0.20;0.20;;;2.30;99.90;;;;;;4966235;28;20239;-88
2021/01/24 07:27:28;;;;;;;0.40;0.40;;;2.30;99.90;;;;;;4985086;28;20235;-85
2021/01/24 07:29:54;;;;;;;0.47;0.47;;;2.20;99.90;;;;;;4969004;28;20207;-86
2021/01/24 07:32:22;;;;;;;0.30;0.30;;;2.10;99.90;;;;;;4971127;28;20283;-84
2021/01/24 07:34:51;;;;;;;0.40;0.40;;;2.00;99.90;;;;;;4983785;28;20298;-84
2021/01/24 07:37:17;;;;;;;0.60;0.60;;;2.00;99.90;;;;;;4968269;28;20274;-88
2021/01/24 07:39:45;;;;;;;0.40;0.40;;;2.00;99.90;;;;;;4988867;28;20224;-85
2021/01/24 07:42:11;;;;;;;0.77;0.77;;;2.00;99.90;;;;;;4969195;28;20214;-91
2021/01/24 07:44:39;;;;;;;0.63;0.63;;;2.00;99.90;;;;;;4973720;28;20181;-90
2021/01/24 07:47:06;;;;;;;0.27;0.27;;;2.00;99.90;;;;;;4970709;28;20235;-86
2021/01/24 07:49:31;;;;;;;1.20;0.90;;;2.00;99.90;;;;;;4989537;28;20223;-85
2021/01/24 07:51:57;;;;;;;2.33;1.10;;;2.00;99.90;;;;;;4990456;28;20848;-88
2021/01/24 07:54:24;;;;;;;0.27;0.27;;;2.10;99.90;;;;;;4972004;28;20239;-85
2021/01/24 07:56:50;;;;;;;9.23;0.87;;;2.20;99.90;;;;;;4987774;28;20234;-87
2021/01/24 07:59:17;;;;;;;0.20;0.20;;;2.20;99.90;;;;;;4967957;28;20228;-90
2021/01/24 08:01:43;;;;;;;0.50;0.50;;;2.30;99.90;;;;;;4986478;28;20227;-89
2021/01/24 08:04:09;;;;;;;0.20;0.20;;;2.30;99.90;;;;;;4955474;28;20700;-86
2021/01/24 08:06:36;;;;;;;0.53;0.53;;;2.40;99.90;;;;;;4973036;28;20228;-85
2021/01/24 08:09:06;;;;;;;0.37;0.37;;;2.50;99.90;;;;;;4973120;28;20186;-85
2021/01/24 08:11:33;;;;;;;0.10;0.10;;;2.60;99.90;;;;;;4974593;28;20672;-86
2021/01/24 08:14:00;;;;;;;0.20;0.20;;;2.70;99.90;;;;;;4973316;28;20236;-90
2021/01/24 08:16:30;;;;;;;0.10;0.10;;;2.70;99.90;;;;;;4991389;28;20220;-90
2021/01/24 08:18:56;;;;;;;0.10;0.10;;;2.60;99.90;;;;;;4994200;28;20298;-90
2021/01/24 08:21:25;;;;;;;0.30;0.30;;;2.60;99.90;;;;;;4972661;28;20212;-94
2021/01/24 08:23:52;;;;;;;0.10;0.10;;;2.60;99.90;;;;;;4962512;28;20218;-90
2021/01/24 08:26:36;;;;;;;0.40;0.40;;;2.60;99.90;;;;;;4975044;28;20270;-91
2021/01/24 08:29:04;;;;;;;0.10;0.10;;;2.60;99.90;;;;;;4973812;28;20196;-91
2021/01/24 08:31:29;;;;;;;0.10;0.10;;;2.60;99.90;;;;;;4976842;28;20653;-91
2021/01/24 08:33:56;;;;;;;2.57;0.60;;;2.60;99.90;;;;;;4973435;28;20222;-93
2021/01/24 08:36:26;;;;;;;0.10;0.10;;;2.70;99.90;;;;;;4989119;28;20224;-89
2021/01/24 08:38:56;;;;;;;0.40;0.40;;;2.70;99.90;;;;;;4974978;28;20199;-88
2021/01/24 08:41:37;;;;;;;0.20;0.20;;;2.70;99.90;;;;;;4976299;28;20228;-88
2021/01/24 08:44:05;;;;;;;0.40;0.40;;;2.70;99.90;;;;;;4976220;28;20687;-87
2021/01/24 08:46:36;;;;;;;0.30;0.30;;;2.70;99.90;;;;;;4991169;28;20600;-91
2021/01/24 08:49:06;;;;;;;0.10;0.10;;;2.70;99.90;;;;;;4966077;28;20295;-92
2021/01/24 08:51:44;;;;;;;2.90;0.60;;;2.70;99.90;;;;;;4981705;28;20424;-93
2021/01/24 08:54:17;;;;;;;0.30;0.30;;;2.80;99.90;;;;;;4979723;28;20338;-93
2021/01/24 08:56:43;;;;;;;0.40;0.40;;;2.80;99.90;;;;;;4965718;28;20571;-91
2021/01/24 08:59:19;;;;;;;0.30;0.30;;;2.80;99.90;;;;;;4963875;28;20232;-93
2021/01/24 09:01:46;;;;;;;0.20;0.20;;;2.80;99.90;;;;;;4963911;28;20218;-89
2021/01/24 09:04:29;;;;;;;0.30;0.30;;;2.80;99.90;;;;;;4946184;28;20220;-93
2021/01/24 09:07:06;;;;;;;1.00;0.67;;;2.90;99.90;;;;;;4947136;28;20763;-91
2021/01/24 09:09:35;;;;;;;0.27;0.27;;;3.00;99.90;;;;;;4963732;28;20215;-90
2021/01/24 09:12:02;;;;;;;0.20;0.20;;;3.00;99.90;;;;;;4950316;28;20184;-90
2021/01/24 09:14:27;;;;;;;0.13;0.13;;;3.10;99.90;;;;;;4983129;28;20234;-91
2021/01/24 09:16:57;;;;;;;0.20;0.20;;;3.20;99.90;;;;;;4965324;28;20582;-92
2021/01/24 09:19:23;;;;;;;0.20;0.20;;;3.30;99.90;;;;;;4964589;28;20251;-90
2021/01/24 09:21:49;;;;;;;0.50;0.50;;;3.40;99.90;;;;;;4944487;28;20302;-93
2021/01/24 09:24:14;;;;;;;0.10;0.10;;;3.40;99.90;;;;;;4980607;28;20232;-91
2021/01/24 09:26:40;;;;;;;0.20;0.20;;;3.50;99.90;;;;;;4949010;28;20208;-90
2021/01/24 09:29:06;;;;;;;0.20;0.20;;;3.50;99.90;;;;;;4948110;28;21208;-92
2021/01/24 09:31:31;;;;;;;0.20;0.20;;;3.50;99.90;;;;;;4984297;28;20227;-90
2021/01/24 09:33:57;;;;;;;0.20;0.20;;;3.50;99.90;;;;;;4955332;28;20283;-89
2021/01/24 09:36:23;;;;;;;0.20;0.20;;;3.50;99.90;;;;;;4973202;28;20212;-89
2021/01/24 09:38:48;;;;;;;0.30;0.30;;;3.50;99.90;;;;;;4974145;28;20552;-91
2021/01/24 09:41:14;;;;;;;0.20;0.20;;;3.50;99.90;;;;;;4960137;28;20266;-90
2021/01/24 09:43:40;;;;;;;0.20;0.20;;;3.50;99.90;;;;;;4975720;28;20234;-88
2021/01/24 09:46:06;;;;;;;0.23;0.23;;;3.50;99.90;;;;;;4959554;28;20266;-89
2021/01/24 09:48:31;;;;;;;0.20;0.20;;;3.60;99.90;;;;;;4974910;28;20693;-89
2021/01/24 09:50:57;;;;;;;0.30;0.30;;;3.60;99.90;;;;;;4960231;28;20192;-92
2021/01/24 09:53:23;;;;;;;0.10;0.10;;;3.60;99.90;;;;;;4944431;28;20251;-91
2021/01/24 09:55:48;;;;;;;0.50;0.50;;;3.70;99.90;;;;;;4975745;28;20307;-90
2021/01/24 09:58:14;;;;;;;0.30;0.30;;;3.90;99.90;;;;;;4973770;28;20245;-90
2021/01/24 10:00:40;;;;;;;0.30;0.30;;;4.00;99.90;;;;;;4957175;28;20335;-91
2021/01/24 10:03:05;;;;;;;0.90;0.43;;;4.20;99.90;;;;;;4972434;28;20181;-89
2021/01/24 10:05:31;;;;;;;0.30;0.30;;;4.40;99.90;;;;;;4956703;28;20188;-91
2021/01/24 10:07:57;;;;;;;0.30;0.30;;;4.50;99.90;;;;;;4952677;28;20579;-91
2021/01/24 10:10:22;;;;;;;0.30;0.30;;;4.70;99.90;;;;;;4935497;28;20218;-90
2021/01/24 10:12:48;;;;;;;0.20;0.20;;;4.80;99.90;;;;;;4968565;28;20293;-91
2021/01/24 10:15:14;;;;;;;0.20;0.20;;;4.90;99.90;;;;;;4965666;28;20563;-92
2021/01/24 10:17:40;;;;;;;0.50;0.50;;;5.10;99.90;;;;;;4970917;28;20286;-91
2021/01/24 10:20:06;;;;;;;0.30;0.30;;;5.20;99.90;;;;;;4973023;28;20665;-88
2021/01/24 10:22:32;;;;;;;0.27;0.27;;;5.40;99.90;;;;;;4986963;28;20220;-88
2021/01/24 10:24:57;;;;;;;0.50;0.50;;;5.60;99.90;;;;;;4989835;28;20231;-88
2021/01/24 10:27:23;;;;;;;0.37;0.37;;;5.70;99.90;;;;;;4975749;28;20235;-89
2021/01/24 10:29:49;;;;;;;0.20;0.20;;;5.60;99.90;;;;;;4957625;28;20661;-88
2021/01/24 10:32:15;;;;;;;0.30;0.30;;;5.50;99.90;;;;;;4968909;28;20224;-89
2021/01/24 10:34:40;;;;;;;0.20;0.20;;;5.30;99.90;;;;;;4970651;28;20224;-93
2021/01/24 10:37:06;;;;;;;0.10;0.10;;;5.20;99.90;;;;;;4956896;28;20628;-90
2021/01/24 10:39:32;;;;;;;0.10;0.10;;;5.10;99.90;;;;;;4989095;28;20900;-89
2021/01/24 10:41:57;;;;;;;0.30;0.30;;;5.00;99.90;;;;;;4966726;28;20279;-90
2021/01/24 10:44:23;;;;;;;0.20;0.20;;;5.20;99.90;;;;;;4968782;28;20180;-92
2021/01/24 10:46:49;;;;;;;0.40;0.20;;;5.30;99.90;;;;;;4964189;28;20717;-90
2021/01/24 10:49:15;;;;;;;1.30;0.40;;;5.30;99.90;;;;;;4966319;28;21121;-91
2021/01/24 10:51:40;;;;;;;0.20;0.20;;;5.40;99.90;;;;;;4952579;28;20208;-93
2021/01/24 10:54:06;;;;;;;0.20;0.20;;;5.40;99.90;;;;;;4945333;28;20315;-92
2021/01/24 10:56:32;;;;;;;0.37;0.30;;;5.50;99.90;;;;;;4964790;28;20645;-90
2021/01/24 10:58:58;;;;;;;0.30;0.30;;;5.70;99.90;;;;;;4963703;28;20243;-92
2021/01/24 11:01:23;;;;;;;0.37;0.37;;;5.70;99.90;;;;;;4948759;28;20671;-91
2021/01/24 11:03:49;;;;;;;0.20;0.20;;;5.80;99.90;;;;;;4948647;28;20193;-92
2021/01/24 11:06:15;;;;;;;0.23;0.23;;;5.70;99.90;;;;;;4933675;28;20332;-90
2021/01/24 11:08:40;;;;;;;0.30;0.30;;;5.70;99.90;;;;;;4942158;28;20225;-90
2021/01/24 11:11:06;;;;;;;1.30;0.47;;;5.70;99.90;;;;;;4960783;28;20227;-91
2021/01/24 11:13:32;;;;;;;0.20;0.20;;;5.80;99.90;;;;;;4960586;28;20197;-90
2021/01/24 11:15:58;;;;;;;0.20;0.20;;;5.80;99.90;;;;;;4962765;28;20945;-90
2021/01/24 11:18:23;;;;;;;0.20;0.20;;;5.70;99.90;;;;;;4946059;28;20566;-91
2021/01/24 11:20:49;;;;;;;0.80;0.80;;;6.00;99.90;;;;;;4961764;28;20279;-91
2021/01/24 11:23:15;;;;;;;0.43;0.43;;;6.00;99.90;;;;;;4959890;28;20795;-91
2021/01/24 11:25:41;;;;;;;0.20;0.20;;;5.80;99.90;;;;;;4947505;28;20662;-88
2021/01/24 11:28:07;;;;;;;0.97;0.40;;;5.60;99.90;;;;;;4953233;28;20221;-91
2021/01/24 11:30:33;;;;;;;0.30;0.30;;;5.70;99.90;;;;;;4954855;28;20221;-86
2021/01/24 11:32:59;;;;;;;0.20;0.20;;;5.70;99.90;;;;;;4940207;29;20225;-86
2021/01/24 11:35:25;;;;;;;0.73;0.40;;;5.70;99.90;;;;;;4955040;28;20221;-87
2021/01/24 11:37:51;;;;;;;0.20;0.20;;;5.70;99.90;;;;;;4962155;28;20221;-86
2021/01/24 11:40:17;;;;;;;0.47;0.40;;;5.70;99.90;;;;;;4958737;28;20247;-87
2021/01/24 11:42:42;;;;;;;0.43;0.43;;;5.70;99.90;;;;;;4973106;28;20715;-86
2021/01/24 11:45:29;;;;;;;0.30;0.30;;;5.70;99.90;;;;;;4957501;28;20224;-87
2021/01/24 11:51:36;;;;;;;0.60;0.60;;;5.40;99.90;;;;;;4966979;28;20224;-86
2021/01/24 11:54:02;;;;;;;0.93;0.93;;;5.30;99.90;;;;;;4968923;28;20236;-91
2021/01/24 11:56:29;;;;;;;0.23;0.23;;;5.30;99.90;;;;;;4953548;28;20756;-87
2021/01/24 11:58:55;;;;;;;0.70;0.40;;;5.30;99.90;;;;;;4954372;28;20220;-89
2021/01/24 12:01:20;;;;;;;0.37;0.30;;;5.50;99.90;;;;;;4955237;28;20342;-86
2021/01/24 12:03:46;;;;;;;0.40;0.40;;;5.70;99.90;;;;;;4968966;28;20705;-85
2021/01/24 12:06:12;;;;;;;0.33;0.33;;;5.70;99.90;;;;;;4955351;28;20248;-86
2021/01/24 12:08:38;;;;;;;0.50;0.50;;;5.80;99.90;;;;;;4964334;28;20224;-86
2021/01/24 12:11:03;;;;;;;0.20;0.20;;;6.00;99.90;;;;;;4949187;28;20591;-88
2021/01/24 12:13:29;;;;;;;0.30;0.30;;;6.30;99.90;;;;;;4966531;28;20219;-92
2021/01/24 12:15:55;;;;;;;0.47;0.47;;;6.60;99.90;;;;;;4968295;28;20181;-86
2021/01/24 12:18:22;;;;;;;1.03;0.97;;;6.60;99.90;;;;;;4968984;28;20232;-87
2021/01/24 12:20:48;;;;;;;0.63;0.50;;;6.50;99.90;;;;;;4980815;28;20251;-86
2021/01/24 12:23:14;;;;;;;0.60;0.60;;;6.10;99.90;;;;;;4967696;28;20248;-85
2021/01/24 12:25:40;;;;;;;0.40;0.40;;;5.90;99.90;;;;;;4970551;28;20543;-87
2021/01/24 12:28:05;;;;;;;0.50;0.50;;;5.80;99.90;;;;;;4967847;28;20224;-86
2021/01/24 12:30:31;;;;;;;0.20;0.20;;;5.80;99.90;;;;;;4967950;28;20220;-86
2021/01/24 12:32:57;;;;;;;0.20;0.20;;;5.40;99.90;;;;;;4909895;28;20311;-89
2021/01/24 12:35:23;;;;;;;0.10;0.10;;;5.10;99.90;;;;;;4929099;28;20224;-88
2021/01/24 12:37:49;;;;;;;0.20;0.20;;;5.20;99.90;;;;;;4946350;28;20221;-88
2021/01/24 12:40:15;;;;;;;1.70;0.43;;;5.30;99.90;;;;;;4950137;28;20185;-87
2021/01/24 12:42:41;;;;;;;0.20;0.20;;;5.30;99.90;;;;;;4917824;28;20612;-88
2021/01/24 12:45:07;;;;;;;0.30;0.30;;;5.40;99.90;;;;;;4968238;28;20209;-90
2021/01/24 12:47:33;;;;;;;4.37;1.50;;;5.60;99.90;;;;;;4943104;28;20247;-90
2021/01/24 12:49:59;;;;;;;0.30;0.30;;;5.70;99.90;;;;;;4926798;28;20584;-91
2021/01/24 12:52:24;;;;;;;0.83;0.83;;;5.90;99.90;;;;;;4942490;28;20238;-87
2021/01/24 12:54:53;;;;;;;0.33;0.33;;;6.10;99.90;;;;;;4937151;29;20752;-88
2021/01/24 12:57:19;;;;;;;0.70;0.70;;;6.00;99.90;;;;;;4946995;28;20221;-87
2021/01/24 12:59:45;;;;;;;0.30;0.30;;;6.20;99.90;;;;;;4943463;28;20222;-88
2021/01/24 13:02:12;;;;;;;0.30;0.30;;;6.40;99.90;;;;;;4943947;28;20271;-89
2021/01/24 13:04:38;;;;;;;0.20;0.20;;;7.00;99.90;;;;;;4944614;28;20363;-88
2021/01/24 13:07:07;;;;;;;0.20;0.20;;;7.60;99.90;;;;;;4938408;28;20220;-86
2021/01/24 13:09:36;;;;;;;0.20;0.20;;;7.90;99.90;;;;;;4940121;28;20233;-91